Quick Links (Output Below):   Max & Min Temps   /   Climate Reports   /   Zone Forecasts
River Forecasts   /   Forestry Forecasts   /   Aviation Forecasts   /   Radars   /   Features

Terminal Aerodrome Forecast (Monticello)

Pick a Site:
Arkadelphia | El Dorado | Fayetteville | Fort Smith | Harrison | Highfill | Hot Springs | Jonesboro
Little Rock | Monticello | Mountain Home | Pine Bluff | Texarkana
 Forecast 

KLLQ 280531Z 2806/2906 00000KT P6SM SCT250
     FM281000 00000KT 5SM BR SCT010 SCT250
      TEMPO 2810/2813 1SM BR BKN005
     FM281500 08008KT P6SM SCT040 SCT250
     FM290000 09004KT P6SM BKN250=


 Latest METARs (Observations) 
How to Decode METARs
08Z KLLQ 280753Z AUTO 00000KT 10SM FEW060 26/23 A3002 RMK AO2 SLP159
         T02560233
         
07Z KLLQ 280653Z AUTO 00000KT 10SM CLR 26/23 A3002 RMK AO2 SLP160
         T02610233
         
06Z KLLQ 280553Z AUTO 00000KT 10SM CLR 26/23 A3003 RMK AO2 SLP163
         T02610233 10322 20256 403500244 58001
         
05Z KLLQ 280453Z AUTO 00000KT 10SM CLR 26/24 A3003 RMK AO2 SLP166
         T02610239
         
04Z KLLQ 280353Z AUTO 00000KT 10SM CLR 26/24 A3004 RMK AO2 SLP167
         T02610239
         
03Z KLLQ 280253Z AUTO 00000KT 10SM CLR 27/24 A3003 RMK AO2 SLP165
         T02670244 53019
         
02Z KLLQ 280153Z AUTO 00000KT 10SM CLR 27/24 A3000 RMK AO2 SLP156
         T02720244
         
01Z KLLQ 280053Z AUTO 00000KT 10SM CLR 28/24 A2999 RMK AO2 SLP151
         T02830239
         
00Z KLLQ 272353Z AUTO 00000KT 10SM CLR 32/24 A2997 RMK AO2 SLP146
         T03220239 10350 20322 53003
         
***** Today's Observations (Above) *****


23Z KLLQ 272253Z AUTO 00000KT 10SM CLR 34/23 A2997 RMK AO2 SLP143
         T03390228
         
***** Yesterday's Observations (Above) *****


Back to Main Page
http://www.srh.noaa.gov/lzk/qfcst.php

USA.gov is the U.S. government's official web portal to all federal, state and local government web resources and services.